Flight Track Log - Related Links

Times and Time Zones

All times are in EDT time to prevent confusion due to time zone crossing. See the N1926A flight status page for this flight to view local times or setup timezone preferences in your user account.

Time Position Orientation Groundspeed Altitude Reporting Facility
EDT Latitude Longitude Course Direction KTS MPH feet Rate Location/Type
Tue 02:57:26 PM 39.8167 -86.3000 237° Southwest 125 144 1,500  Level Indianapolis TRACON
Tue 02:58:14 PM 39.8000 -86.3333 237° Southwest 159 183 2,600 1,543 Climbing Indianapolis TRACON
Tue 02:59:11 PM 39.7953 -86.3894 264° West 170 196 4,200 1,714 Climbing Indianapolis Center
Tue 03:00:13 PM 39.7608 -86.4322 224° Southwest 174 200 6,000 871 Climbing Indianapolis Center
Tue 03:01:15 PM 39.7022 -86.4372 184° South 226 260 6,000  Level Indianapolis Center
Tue 03:02:17 PM 39.6219 -86.4200 171° South 250 288 6,000  Level Indianapolis Center
Tue 03:03:19 PM 39.5531 -86.4300 186° South 252 290 6,000 677 Level Indianapolis Center
Tue 03:04:21 PM 39.4894 -86.4397 187° South 240 276 7,400 1,258 Climbing Indianapolis Center
Tue 03:05:23 PM 39.4342 -86.4217 166° South 221 254 8,600 1,161 Climbing Indianapolis Center
Tue 03:06:25 PM 39.3747 -86.3942 160° South 225 259 9,800 1,113 Climbing Indianapolis Center
Tue 03:07:27 PM 39.3019 -86.3653 163° South 228 262 10,900 1,016 Climbing Indianapolis Center
Tue 03:08:29 PM 39.2411 -86.3458 166° South 227 261 11,900 919 Climbing Indianapolis Center
Tue 03:09:31 PM 39.1775 -86.3275 167° South 231 266 12,800 484 Climbing Indianapolis Center
Tue 03:10:33 PM 39.1097 -86.3089 168° South 246 283 12,900 48 Climbing Indianapolis Center
Tue 03:11:35 PM 39.0383 -86.2869 167° South 260 299 12,900  Level Indianapolis Center
Tue 03:12:38 PM 38.9681 -86.2742 172° South 258 297 12,900  Level Indianapolis Center
Tue 03:13:40 PM 38.8842 -86.2683 179° South 253 291 12,900 48 Level Indianapolis Center
Tue 03:14:42 PM 38.8225 -86.2619 175° South 253 291 13,000 48 Climbing Indianapolis Center
Tue 03:15:44 PM 38.7386 -86.2514 174° South 251 289 13,000  Level Indianapolis Center
Tue 03:16:46 PM 38.6689 -86.2436 175° South 250 288 13,000 -194 Level Indianapolis Center
Tue 03:17:48 PM 38.5978 -86.2344 174° South 253 291 12,600 -581 Descending Indianapolis Center
Tue 03:18:50 PM 38.5217 -86.2253 175° South 267 307 11,800 -677 Descending Indianapolis Center
Tue 03:19:52 PM 38.4494 -86.1958 162° South 270 311 11,200 -629 Descending Indianapolis Center
Tue 03:20:54 PM 38.3772 -86.1661 162° South 271 312 10,500 -726 Descending Indianapolis Center
Tue 03:21:56 PM 38.3064 -86.1375 162° South 267 307 9,700 -1,016 Descending Indianapolis Center
Tue 03:22:58 PM 38.2353 -86.1086 162° South 267 307 8,400 -1,344 Descending Indianapolis Center
Tue 03:24:01 PM 38.1486 -86.0786 165° South 266 306 6,900 -2,160 Descending Indianapolis Center
Tue 03:25:03 PM 38.0806 -86.0583 167° South 258 297 3,900 -1,887 Descending Indianapolis Center
Tue 03:26:05 PM 38.0161 -86.0403 168° South 249 287 3,000 -435 Descending Indianapolis Center
Tue 03:27:07 PM 37.9589 -86.0253 168° South 231 266 3,000  Level Indianapolis Center
Tue 03:28:09 PM 37.9017 -86.0050 164° South 221 254 3,000  Level Indianapolis Center
Tue 03:29:11 PM 37.8431 -85.9833 164° South 219 252 3,000  Level Indianapolis Center
Tue 03:30:13 PM 37.7881 -85.9653 165° South 212 244 3,000 -145 Level Indianapolis Center
Tue 03:31:15 PM 37.7269 -85.9447 165° South 208 239 2,700 -290 Descending Indianapolis Center
Tue 03:33:00 PM 37.6833 -85.9167 158° South  Level FlightAware Approximate
Tue 03:40:00 PM 37.6860 -85.9250 158° South  Level Estimated
Tue 03:41:00 PM 37.6833 -85.9167 158° South  Level FlightAware Approximate

Login

Don't have an account? Register now (free) for customized features, flight alerts, and more!